Time;durP1;ratioP1;P1;durP2;ratioP2;P2;SDS_P1;SDS_P2;PMS_P1;PMS_P2;Temp;Humidity;BMP_temperature;BMP_pressure;BME280_temperature;BME280_humidity;BME280_pressure;Samples;Min_cycle;Max_cycle;Signal;HPM_P1;HPM_P2
2023/06/03 00:00:13;;;;;;;0.70;0.50;;;10.20;58.40;10.10;101157.00;;;;4984527;28;92965;-66
2023/06/03 00:02:40;;;;;;;2.00;0.60;;;10.20;58.60;10.10;101159.00;;;;4985963;28;92849;-67
2023/06/03 00:05:06;;;;;;;0.57;0.43;;;10.20;58.60;10.00;101152.00;;;;4987442;27;93432;-67
2023/06/03 00:07:32;;;;;;;0.50;0.50;;;10.10;59.00;10.00;101158.00;;;;4985097;28;114761;-67
2023/06/03 00:09:59;;;;;;;0.57;0.30;;;10.10;59.10;10.00;101160.00;;;;4982043;28;110482;-66
2023/06/03 00:12:25;;;;;;;0.23;0.20;;;10.00;59.10;9.90;101163.00;;;;4986334;28;107544;-67
2023/06/03 00:14:50;;;;;;;0.50;0.33;;;10.00;59.30;9.90;101163.00;;;;4984388;28;123151;-66
2023/06/03 00:17:16;;;;;;;0.80;0.50;;;10.00;59.50;9.90;101169.00;;;;4985560;28;122669;-68
2023/06/03 00:19:42;;;;;;;0.60;0.50;;;9.90;59.70;9.80;101162.00;;;;4969128;28;92975;-67
2023/06/03 00:22:08;;;;;;;0.67;0.40;;;9.90;59.90;9.80;101170.00;;;;4985543;28;97860;-67
2023/06/03 00:24:34;;;;;;;0.50;0.40;;;9.90;59.90;9.80;101162.00;;;;4983350;28;122771;-66
2023/06/03 00:27:00;;;;;;;0.50;0.30;;;9.80;59.90;9.70;101165.00;;;;4989639;28;93839;-66
2023/06/03 00:29:26;;;;;;;0.53;0.30;;;9.80;60.30;9.70;101164.00;;;;4987040;28;92982;-68
2023/06/03 00:31:52;;;;;;;0.60;0.30;;;9.80;61.50;9.70;101159.00;;;;4993611;28;107979;-66
2023/06/03 00:34:18;;;;;;;0.83;0.67;;;9.70;60.70;9.60;101162.00;;;;4991584;28;123778;-66
2023/06/03 00:36:44;;;;;;;1.07;0.57;;;9.70;60.80;9.60;101164.00;;;;4993054;27;123536;-66
2023/06/03 00:39:10;;;;;;;0.67;0.40;;;10.00;61.10;9.60;101167.00;;;;4993233;28;92918;-67
2023/06/03 00:41:36;;;;;;;1.70;0.67;;;9.60;61.10;9.50;101157.00;;;;4993130;27;103482;-69
2023/06/03 00:44:02;;;;;;;0.40;0.40;;;9.60;61.10;9.50;101165.00;;;;4992951;28;102584;-68
2023/06/03 00:46:30;;;;;;;6.17;0.87;;;9.50;61.30;9.50;101176.00;;;;4989528;28;121442;-67
2023/06/03 00:48:56;;;;;;;1.13;0.50;;;9.60;61.50;9.40;101167.00;;;;4973324;28;92985;-66
2023/06/03 00:51:22;;;;;;;0.40;0.37;;;9.50;61.70;9.40;101180.00;;;;4977730;28;107646;-68
2023/06/03 00:53:48;;;;;;;0.80;0.57;;;9.50;61.70;9.40;101173.00;;;;4988509;27;123585;-67
2023/06/03 00:56:17;;;;;;;0.57;0.40;;;9.50;61.90;9.40;101169.00;;;;4972103;28;121499;-68
2023/06/03 00:58:43;;;;;;;1.03;0.70;;;9.50;62.10;9.40;101173.00;;;;4989494;27;94004;-67
2023/06/03 01:01:08;;;;;;;0.67;0.60;;;9.50;62.30;9.30;101164.00;;;;4989887;28;98560;-67
2023/06/03 01:03:36;;;;;;;0.50;0.20;;;9.40;62.00;9.30;101163.00;;;;4990444;27;93144;-67
2023/06/03 01:06:53;;;;;;;1.87;0.70;;;9.40;62.00;9.20;101163.00;;;;4987001;28;92844;-68
2023/06/03 01:09:31;;;;;;;1.23;0.60;;;9.40;62.30;9.20;101162.00;;;;4957456;28;93111;-66
2023/06/03 01:12:22;;;;;;;3.93;0.83;;;9.30;62.40;9.20;101165.00;;;;4975680;28;102366;-66
2023/06/03 01:14:57;;;;;;;0.80;0.47;;;9.30;62.40;9.20;101168.00;;;;4974140;28;112757;-67
2023/06/03 01:17:31;;;;;;;1.63;0.77;;;9.30;62.50;9.10;101170.00;;;;4991819;27;92920;-66
2023/06/03 01:19:59;;;;;;;1.50;0.60;;;9.20;62.40;9.10;101164.00;;;;4991887;28;92729;-66
2023/06/03 01:22:26;;;;;;;0.83;0.40;;;9.20;62.60;9.10;101150.00;;;;4988966;28;92921;-68
2023/06/03 01:25:04;;;;;;;1.27;0.50;;;9.20;62.60;9.00;101161.00;;;;4990181;28;95456;-66
2023/06/03 01:27:29;;;;;;;3.13;0.83;;;9.10;62.90;9.00;101162.00;;;;4989888;28;94632;-65
2023/06/03 01:29:55;;;;;;;1.13;0.60;;;9.10;63.00;8.90;101164.00;;;;4985027;28;102357;-65
2023/06/03 01:32:21;;;;;;;0.93;0.60;;;9.10;63.10;8.90;101161.00;;;;4977625;27;108881;-66
2023/06/03 01:34:47;;;;;;;0.43;0.40;;;9.00;63.10;8.80;101162.00;;;;4989144;28;122204;-67
2023/06/03 01:37:13;;;;;;;1.43;0.80;;;8.90;63.20;8.80;101172.00;;;;4972857;28;93320;-67
2023/06/03 01:39:55;;;;;;;0.97;0.40;;;8.90;63.60;8.70;101162.00;;;;4981476;28;109876;-66
2023/06/03 01:42:20;;;;;;;3.00;0.80;;;8.80;63.70;8.70;101165.00;;;;4973047;28;108782;-67
2023/06/03 01:44:46;;;;;;;0.97;0.60;;;8.80;63.90;8.60;101166.00;;;;4989878;28;123201;-66
2023/06/03 01:47:12;;;;;;;1.13;0.90;;;8.70;64.00;8.60;101166.00;;;;4972403;27;109946;-66
2023/06/03 01:49:38;;;;;;;0.40;0.20;;;8.70;64.30;8.60;101177.00;;;;4985362;28;94151;-67
2023/06/03 01:52:04;;;;;;;0.97;0.53;;;8.70;64.50;8.50;101166.00;;;;4984519;28;108823;-68
2023/06/03 01:54:30;;;;;;;0.80;0.30;;;8.60;64.60;8.50;101166.00;;;;4977261;28;93724;-67
2023/06/03 01:56:56;;;;;;;0.93;0.60;;;8.60;64.90;8.40;101168.00;;;;4988017;28;93342;-68
2023/06/03 01:59:24;;;;;;;1.17;0.70;;;8.50;65.10;8.40;101166.00;;;;4986608;28;93896;-67
2023/06/03 02:01:52;;;;;;;0.67;0.50;;;8.50;65.50;8.30;101158.00;;;;4988204;28;94154;-66
2023/06/03 02:04:18;;;;;;;1.23;0.60;;;8.40;65.60;8.30;101164.00;;;;4988070;28;97910;-67
2023/06/03 02:06:52;;;;;;;0.50;0.33;;;8.40;65.80;8.20;101172.00;;;;4992474;27;93735;-67
2023/06/03 02:09:21;;;;;;;1.97;1.13;;;8.30;66.20;8.20;101165.00;;;;4994105;27;92920;-66
2023/06/03 02:11:48;;;;;;;4.07;1.37;;;8.30;66.40;8.10;101162.00;;;;4988773;27;93753;-66
2023/06/03 02:14:14;;;;;;;2.07;0.70;;;8.40;66.60;8.10;101174.00;;;;4987171;28;102009;-66
2023/06/03 02:16:41;;;;;;;0.40;0.40;;;8.20;66.80;8.10;101170.00;;;;4975405;27;94602;-66
2023/06/03 02:19:25;;;;;;;1.10;0.60;;;8.20;67.10;8.00;101186.00;;;;4989459;27;92883;-66
2023/06/03 02:21:52;;;;;;;1.07;0.33;;;8.20;67.50;8.00;101184.00;;;;4989713;28;93269;-66
2023/06/03 02:24:19;;;;;;;0.83;0.83;;;7.60;67.30;8.00;101184.00;;;;4990716;28;94123;-66
2023/06/03 02:26:52;;;;;;;0.27;0.20;;;8.20;68.00;7.90;101181.00;;;;4992565;28;123113;-67
2023/06/03 02:29:29;;;;;;;0.43;0.43;;;8.10;68.20;7.90;101186.00;;;;4973944;28;93224;-66
2023/06/03 02:31:55;;;;;;;0.77;0.70;;;8.00;68.40;7.80;101178.00;;;;4995266;28;94489;-66
2023/06/03 02:34:21;;;;;;;0.40;0.30;;;8.00;68.60;7.80;101185.00;;;;4989229;27;93073;-66
2023/06/03 02:36:47;;;;;;;1.73;0.50;;;7.90;69.00;7.80;101184.00;;;;4985167;27;92911;-66
2023/06/03 02:39:14;;;;;;;0.63;0.47;;;7.90;69.30;7.70;101180.00;;;;4986926;27;93908;-66
2023/06/03 02:41:42;;;;;;;2.43;0.60;;;7.80;69.70;7.70;101182.00;;;;4981735;27;93011;-66
2023/06/03 02:44:08;;;;;;;0.37;0.37;;;7.80;69.90;7.60;101161.00;;;;4988198;27;115582;-66
2023/06/03 02:46:34;;;;;;;0.97;0.47;;;7.80;70.10;7.60;101174.00;;;;4985167;28;122551;-66
2023/06/03 02:49:04;;;;;;;0.70;0.67;;;7.70;70.20;7.60;101178.00;;;;4988728;28;92891;-66
2023/06/03 02:51:29;;;;;;;0.90;0.77;;;7.70;70.60;7.50;101186.00;;;;4985053;27;93207;-66
2023/06/03 02:53:55;;;;;;;0.70;0.70;;;8.10;71.00;7.50;101180.00;;;;4970104;28;117291;-66
2023/06/03 02:56:22;;;;;;;0.50;0.50;;;7.60;71.00;7.40;101182.00;;;;4974115;28;95563;-66
2023/06/03 02:58:51;;;;;;;0.43;0.43;;;7.60;71.30;7.40;101188.00;;;;4970595;28;92703;-67
2023/06/03 03:01:18;;;;;;;0.60;0.60;;;7.50;71.70;7.30;101184.00;;;;4969678;28;108915;-66
2023/06/03 03:03:44;;;;;;;0.80;0.50;;;8.00;72.30;7.30;101180.00;;;;4964797;28;123853;-65
2023/06/03 03:06:16;;;;;;;1.30;0.43;;;7.40;72.10;7.30;101184.00;;;;4966606;28;122555;-65
2023/06/03 03:08:42;;;;;;;0.30;0.30;;;7.60;72.70;7.30;101191.00;;;;4951642;28;111110;-65
2023/06/03 03:11:13;;;;;;;1.30;0.57;;;7.40;72.80;7.20;101188.00;;;;4973280;28;92905;-66
2023/06/03 03:13:38;;;;;;;1.03;0.90;;;7.40;73.10;7.20;101186.00;;;;4958035;28;93484;-66
2023/06/03 03:16:04;;;;;;;0.70;0.50;;;7.40;73.50;7.20;101189.00;;;;4958114;28;122058;-65
2023/06/03 03:18:30;;;;;;;1.03;0.60;;;7.30;73.90;7.20;101190.00;;;;4971322;28;111259;-65
2023/06/03 03:20:56;;;;;;;0.40;0.30;;;7.80;74.50;7.20;101190.00;;;;4972023;28;92384;-66
2023/06/03 03:23:22;;;;;;;0.77;0.77;;;7.40;74.50;7.20;101198.00;;;;4971206;28;101801;-65
2023/06/03 03:25:48;;;;;;;2.10;1.07;;;7.70;75.00;7.20;101189.00;;;;4968682;28;111546;-65
2023/06/03 03:28:14;;;;;;;0.60;0.40;;;7.30;75.00;7.20;101194.00;;;;4967932;28;94803;-65
2023/06/03 03:30:40;;;;;;;3.20;0.83;;;7.30;75.40;7.10;101198.00;;;;4971238;28;92936;-65
2023/06/03 03:33:06;;;;;;;0.50;0.50;;;7.30;75.60;7.10;101194.00;;;;4968323;28;123004;-65
2023/06/03 03:35:32;;;;;;;1.70;0.60;;;7.30;75.90;7.10;101197.00;;;;4967065;28;122939;-67
2023/06/03 03:38:04;;;;;;;0.60;0.60;;;7.40;76.20;7.10;101209.00;;;;4968117;28;92914;-65
2023/06/03 03:40:37;;;;;;;1.50;0.70;;;7.60;76.80;7.20;101201.00;;;;4972735;28;93494;-65
2023/06/03 03:43:02;;;;;;;0.40;0.40;;;7.30;77.10;7.20;101205.00;;;;4969148;28;114880;-66
2023/06/03 03:45:38;;;;;;;1.50;0.70;;;7.60;77.50;7.20;101196.00;;;;4969360;28;92987;-66
2023/06/03 03:48:13;;;;;;;0.47;0.40;;;7.70;78.70;7.30;101198.00;;;;4969093;28;109928;-66
2023/06/03 03:50:46;;;;;;;1.27;0.63;;;7.40;78.00;7.40;101197.00;;;;4957489;28;92672;-66
2023/06/03 03:53:30;;;;;;;1.40;0.37;;;7.50;78.60;7.40;101204.00;;;;4966332;28;117998;-66
2023/06/03 03:55:58;;;;;;;0.80;0.60;;;7.50;79.00;7.50;101209.00;;;;4969799;28;94434;-67
2023/06/03 03:58:50;;;;;;;0.40;0.40;;;7.70;79.20;7.60;101218.00;;;;4967458;28;93102;-66
2023/06/03 04:01:21;;;;;;;1.43;0.90;;;7.70;79.70;7.70;101210.00;;;;4948070;28;93039;-66
2023/06/03 04:03:50;;;;;;;2.13;0.77;;;7.90;80.20;7.90;101213.00;;;;4968109;28;93839;-66
2023/06/03 04:06:37;;;;;;;0.70;0.70;;;7.80;79.90;7.90;101216.00;;;;4963643;28;94129;-66
2023/06/03 04:09:04;;;;;;;0.50;0.50;;;8.00;79.70;8.10;101218.00;;;;4970885;28;93047;-66
2023/06/03 04:11:41;;;;;;;1.07;0.83;;;8.10;79.30;8.20;101220.00;;;;4964652;28;91912;-67
2023/06/03 04:14:14;;;;;;;0.70;0.70;;;6.90;78.00;8.30;101225.00;;;;4971310;28;94171;-67
2023/06/03 04:16:57;;;;;;;1.90;0.80;;;8.30;78.30;8.40;101220.00;;;;4971241;28;93880;-66
2023/06/03 04:19:30;;;;;;;1.37;0.80;;;8.40;77.70;8.50;101224.00;;;;4971511;28;105860;-66
2023/06/03 04:21:57;;;;;;;6.17;0.70;;;8.50;77.20;8.60;101220.00;;;;4976366;28;92980;-67
2023/06/03 04:24:25;;;;;;;3.60;1.27;;;8.60;77.50;8.80;101220.00;;;;4970225;28;110823;-68
2023/06/03 04:26:51;;;;;;;0.63;0.63;;;8.80;76.40;8.90;101214.00;;;;4973926;28;94139;-68
2023/06/03 04:29:17;;;;;;;0.80;0.60;;;8.90;76.00;9.00;101215.00;;;;4958052;28;93087;-66
2023/06/03 04:31:43;;;;;;;1.27;0.60;;;9.00;75.70;9.10;101213.00;;;;4981296;28;93213;-67
2023/06/03 04:34:08;;;;;;;1.47;0.90;;;9.10;75.30;9.20;101214.00;;;;4974877;28;123044;-67
2023/06/03 04:36:35;;;;;;;2.10;0.60;;;9.30;74.90;9.40;101222.00;;;;4967704;28;122709;-67
2023/06/03 04:39:04;;;;;;;4.77;1.40;;;9.30;74.20;9.50;101226.00;;;;4973156;28;93208;-67
2023/06/03 04:41:32;;;;;;;0.70;0.50;;;9.50;73.30;9.60;101231.00;;;;4974240;28;92832;-66
2023/06/03 04:44:01;;;;;;;1.50;0.70;;;9.60;72.60;9.70;101224.00;;;;4973495;28;94347;-68
2023/06/03 04:46:29;;;;;;;1.83;0.70;;;9.70;72.10;9.80;101235.00;;;;4974843;28;93726;-66
2023/06/03 04:48:57;;;;;;;1.23;0.90;;;9.80;71.80;9.90;101238.00;;;;4974127;28;93092;-67
2023/06/03 04:51:27;;;;;;;1.33;0.90;;;9.90;71.50;9.90;101239.00;;;;4974544;28;93045;-66
2023/06/03 04:53:55;;;;;;;1.40;0.77;;;9.90;70.80;10.00;101246.00;;;;4970865;28;92762;-65
2023/06/03 04:56:21;;;;;;;0.90;0.63;;;10.00;70.30;10.00;101241.00;;;;4976696;28;93551;-68
2023/06/03 04:58:47;;;;;;;0.93;0.70;;;10.00;70.20;10.00;101236.00;;;;4971494;28;93941;-65
2023/06/03 05:01:13;;;;;;;0.73;0.63;;;10.10;69.80;10.10;101242.00;;;;4968898;28;109040;-66
2023/06/03 05:03:40;;;;;;;1.90;1.10;;;10.10;69.80;10.20;101246.00;;;;4972494;28;93438;-68
2023/06/03 05:06:10;;;;;;;1.10;0.50;;;10.20;69.70;10.30;101245.00;;;;4972554;28;93276;-65
2023/06/03 05:08:40;;;;;;;1.67;0.60;;;10.20;69.00;10.40;101235.00;;;;4972300;28;93826;-66
2023/06/03 05:11:07;;;;;;;1.50;0.60;;;10.30;68.70;10.50;101236.00;;;;4969806;28;99912;-66
2023/06/03 05:13:34;;;;;;;0.47;0.40;;;10.40;68.90;10.60;101240.00;;;;4970329;28;93657;-65
2023/06/03 05:16:00;;;;;;;2.00;0.90;;;10.50;68.80;10.70;101243.00;;;;4968400;28;93787;-65
2023/06/03 05:18:26;;;;;;;1.40;0.80;;;10.60;68.40;10.90;101244.00;;;;4967991;28;92876;-66
2023/06/03 05:20:51;;;;;;;1.00;0.80;;;10.80;67.80;11.00;101237.00;;;;4969886;28;103895;-65
2023/06/03 05:23:17;;;;;;;3.87;1.00;;;10.90;67.40;11.10;101240.00;;;;4967578;28;124079;-66
2023/06/03 05:25:43;;;;;;;0.70;0.53;;;11.00;67.40;11.30;101229.00;;;;4965471;28;122911;-68
2023/06/03 05:28:08;;;;;;;1.07;0.60;;;11.20;67.20;11.50;101243.00;;;;4965117;28;96122;-66
2023/06/03 05:30:34;;;;;;;1.57;0.50;;;11.40;67.00;11.70;101243.00;;;;4967046;28;92987;-68
2023/06/03 05:33:00;;;;;;;3.00;0.67;;;11.60;65.90;11.90;101241.00;;;;4970123;28;124479;-66
2023/06/03 05:35:25;;;;;;;1.00;0.60;;;11.80;65.40;12.00;101243.00;;;;4959258;28;122983;-69
2023/06/03 05:37:51;;;;;;;2.60;0.97;;;11.90;64.40;12.10;101241.00;;;;4967298;28;110122;-67
2023/06/03 05:40:17;;;;;;;0.50;0.50;;;12.00;63.60;12.20;101254.00;;;;4968050;28;108280;-69
2023/06/03 05:42:42;;;;;;;0.90;0.70;;;12.10;63.40;12.30;101250.00;;;;4966631;28;122500;-66
2023/06/03 05:45:08;;;;;;;2.23;0.70;;;12.20;63.40;12.50;101243.00;;;;4970407;28;93239;-66
2023/06/03 05:47:34;;;;;;;1.77;0.77;;;12.30;63.00;12.60;101252.00;;;;4964676;28;92941;-68
2023/06/03 05:50:00;;;;;;;1.93;0.80;;;12.50;62.80;12.80;101252.00;;;;4962794;28;107957;-67
2023/06/03 05:52:29;;;;;;;0.60;0.60;;;12.70;62.70;13.00;101255.00;;;;4976327;28;124012;-67
2023/06/03 05:54:54;;;;;;;0.93;0.73;;;12.90;61.80;13.20;101254.00;;;;4985870;28;93492;-66
2023/06/03 05:57:20;;;;;;;0.93;0.87;;;13.10;60.80;13.40;101255.00;;;;4970450;28;102671;-68
2023/06/03 05:59:46;;;;;;;1.73;0.80;;;13.20;60.50;13.60;101261.00;;;;4983434;28;109171;-67
2023/06/03 06:02:11;;;;;;;1.53;0.80;;;13.40;60.50;13.80;101270.00;;;;4983758;28;93100;-67
2023/06/03 06:04:37;;;;;;;2.10;1.13;;;13.70;60.30;14.10;101267.00;;;;4985824;28;110448;-68
2023/06/03 06:07:03;;;;;;;1.20;0.83;;;13.90;59.40;14.20;101267.00;;;;4988083;28;110436;-67
2023/06/03 06:09:28;;;;;;;1.17;0.97;;;14.10;58.60;14.40;101272.00;;;;4984432;28;93160;-68
2023/06/03 06:11:54;;;;;;;0.97;0.87;;;14.30;58.30;14.60;101271.00;;;;4988163;28;112789;-66
2023/06/03 06:14:20;;;;;;;1.03;0.60;;;14.40;56.60;14.70;101275.00;;;;4984779;28;121885;-68
2023/06/03 06:16:46;;;;;;;2.37;0.80;;;14.60;57.00;14.90;101266.00;;;;4982512;28;100367;-67
2023/06/03 06:19:11;;;;;;;1.60;0.67;;;14.80;56.60;15.10;101276.00;;;;4984723;28;109577;-67
2023/06/03 06:21:37;;;;;;;4.55;1.02;;;14.90;56.00;15.20;101276.00;;;;4985093;27;104469;-67
2023/06/03 06:24:03;;;;;;;0.32;0.30;;;15.10;56.10;15.40;101270.00;;;;4979170;28;122777;-67
2023/06/03 06:26:29;;;;;;;2.20;1.00;;;15.20;55.40;15.50;101272.00;;;;4979153;28;95213;-67
2023/06/03 06:28:55;;;;;;;0.40;0.30;;;15.40;55.10;15.70;101273.00;;;;4963026;28;107836;-68
2023/06/03 06:31:20;;;;;;;0.57;0.57;;;15.50;55.10;15.90;101269.00;;;;4964948;27;93819;-66
2023/06/03 06:33:47;;;;;;;0.65;0.50;;;15.80;54.70;16.20;101275.00;;;;4964933;28;121939;-68
2023/06/03 06:36:39;;;;;;;1.25;0.85;;;16.00;53.80;16.40;101288.00;;;;4970313;27;93148;-66
2023/06/03 06:39:32;;;;;;;0.82;0.82;;;16.20;53.80;16.60;101283.00;;;;4970957;28;92240;-67
2023/06/03 06:42:32;;;;;;;0.77;0.73;;;16.40;52.00;16.80;101277.00;;;;4966691;28;95871;-69
2023/06/03 06:45:10;;;;;;;2.15;0.75;;;16.60;52.10;17.00;101268.00;;;;4966680;28;92875;-67
2023/06/03 06:47:36;;;;;;;2.10;0.47;;;16.80;50.40;17.00;101281.00;;;;4963931;27;93991;-68
2023/06/03 06:50:07;;;;;;;2.25;0.82;;;16.90;49.70;17.20;101272.00;;;;4964404;28;92876;-67
2023/06/03 06:52:35;;;;;;;0.38;0.35;;;17.00;49.60;17.30;101283.00;;;;4964810;27;94385;-66
2023/06/03 06:55:01;;;;;;;2.83;0.75;;;17.10;49.60;17.50;101280.00;;;;4969554;28;93297;-67
2023/06/03 06:57:28;;;;;;;1.95;0.43;;;17.30;49.30;17.60;101285.00;;;;4984793;28;92956;-69
2023/06/03 06:59:54;;;;;;;0.65;0.50;;;17.40;49.00;17.90;101275.00;;;;4984410;28;93158;-67
2023/06/03 07:02:21;;;;;;;0.40;0.40;;;17.60;49.00;18.10;101278.00;;;;4986620;28;106443;-67
2023/06/03 07:04:50;;;;;;;0.82;0.30;;;17.90;47.90;18.30;101290.00;;;;4980547;28;92806;-67
2023/06/03 07:07:17;;;;;;;0.52;0.52;;;18.00;47.90;18.60;101278.00;;;;4985230;28;92673;-68
2023/06/03 07:09:43;;;;;;;7.15;0.50;;;18.30;46.10;18.70;101290.00;;;;4983040;28;92998;-68
2023/06/03 07:12:09;;;;;;;0.43;0.43;;;18.50;46.70;18.90;101286.00;;;;4980633;28;94617;-68
2023/06/03 07:14:35;;;;;;;0.38;0.35;;;18.70;46.40;19.10;101285.00;;;;4962833;28;95433;-68
2023/06/03 07:17:01;;;;;;;6.18;0.65;;;18.90;46.20;19.40;101287.00;;;;4981052;28;92759;-67
2023/06/03 07:19:37;;;;;;;0.63;0.30;;;19.10;46.20;19.60;101281.00;;;;4981765;28;108549;-67
2023/06/03 07:22:05;;;;;;;0.80;0.50;;;19.40;44.30;19.70;101281.00;;;;4970749;27;93437;-66
2023/06/03 07:24:34;;;;;;;1.55;0.43;;;19.50;44.10;19.80;101278.00;;;;4982829;28;93144;-67
2023/06/03 07:27:00;;;;;;;0.40;0.30;;;19.60;42.10;19.90;101281.00;;;;4982304;28;93245;-67
2023/06/03 07:29:35;;;;;;;0.40;0.20;;;19.70;41.70;19.90;101283.00;;;;4983320;28;92447;-67
2023/06/03 07:32:01;;;;;;;0.75;0.47;;;19.70;42.40;20.00;101283.00;;;;4981518;28;93327;-67
2023/06/03 07:34:28;;;;;;;0.38;0.38;;;19.90;41.50;20.10;101287.00;;;;4981981;28;122212;-67
2023/06/03 07:36:59;;;;;;;0.43;0.43;;;19.90;41.20;20.30;101294.00;;;;4962043;27;103306;-67
2023/06/03 07:39:25;;;;;;;1.85;0.50;;;20.10;39.30;20.40;101298.00;;;;4968608;28;101670;-67
2023/06/03 07:41:51;;;;;;;0.68;0.20;;;20.10;38.40;20.20;101291.00;;;;4986814;27;92947;-66
2023/06/03 07:44:43;;;;;;;0.43;0.28;;;20.10;37.40;20.10;101300.00;;;;4979828;28;94095;-66
2023/06/03 07:47:12;;;;;;;0.88;0.55;;;20.00;37.40;20.10;101294.00;;;;4968263;28;93105;-67
2023/06/03 07:49:37;;;;;;;1.38;0.40;;;20.00;37.60;20.10;101302.00;;;;4968543;28;93183;-66
2023/06/03 07:52:03;;;;;;;0.10;0.10;;;19.90;37.50;19.90;101295.00;;;;4975530;28;121761;-66
2023/06/03 07:54:29;;;;;;;0.17;0.10;;;19.80;37.50;19.80;101304.00;;;;4981572;27;110753;-66
2023/06/03 07:56:57;;;;;;;0.38;0.35;;;19.70;37.70;19.70;101293.00;;;;4985548;27;92764;-65
2023/06/03 07:59:24;;;;;;;0.60;0.40;;;19.60;37.60;19.90;101292.00;;;;4971235;27;93077;-67
2023/06/03 08:01:51;;;;;;;1.23;0.50;;;19.70;37.20;20.00;101299.00;;;;5011159;27;94960;-68
2023/06/03 08:04:35;;;;;;;0.20;0.20;;;19.70;36.80;20.10;101302.00;;;;5009483;27;94972;-65
2023/06/03 08:07:02;;;;;;;1.02;0.45;;;19.80;37.20;20.20;101294.00;;;;5004117;27;93461;-67
2023/06/03 08:09:33;;;;;;;0.88;0.40;;;20.00;37.30;20.40;101306.00;;;;5009077;27;92952;-66
2023/06/03 08:12:03;;;;;;;1.17;0.47;;;20.10;37.20;20.50;101303.00;;;;4976258;27;112235;-67
2023/06/03 08:14:33;;;;;;;1.00;0.50;;;20.20;37.60;20.70;101300.00;;;;4999856;27;93332;-67
2023/06/03 08:17:09;;;;;;;0.45;0.40;;;20.50;37.00;20.90;101296.00;;;;5002127;27;94108;-66
2023/06/03 08:19:35;;;;;;;0.73;0.20;;;20.60;36.70;21.10;101299.00;;;;4943610;27;92253;-67
2023/06/03 08:22:01;;;;;;;0.30;0.22;;;20.80;34.80;21.00;101296.00;;;;4984398;27;93686;-65
2023/06/03 08:24:26;;;;;;;9.15;0.88;;;20.80;34.90;21.00;101295.00;;;;4984041;27;112245;-69
2023/06/03 08:26:52;;;;;;;0.30;0.20;;;20.80;36.00;21.30;101295.00;;;;4982018;28;109770;-69
2023/06/03 08:29:18;;;;;;;0.60;0.40;;;21.00;36.50;21.60;101299.00;;;;4983038;28;109137;-68
2023/06/03 08:31:44;;;;;;;0.60;0.47;;;21.30;35.30;21.60;101296.00;;;;4977536;27;94454;-66
2023/06/03 08:34:09;;;;;;;0.75;0.30;;;21.40;34.90;21.70;101300.00;;;;4984703;28;122880;-68
2023/06/03 08:36:36;;;;;;;0.40;0.20;;;21.40;34.40;21.60;101286.00;;;;4984437;28;92891;-69
2023/06/03 08:39:02;;;;;;;0.88;0.30;;;21.40;34.80;21.70;101288.00;;;;4984103;28;93003;-69
2023/06/03 08:41:37;;;;;;;2.05;0.30;;;21.50;35.00;21.80;101294.00;;;;4984438;28;93432;-69
2023/06/03 08:44:17;;;;;;;0.28;0.22;;;21.60;35.30;22.00;101296.00;;;;4987114;28;93227;-70
2023/06/03 08:47:00;;;;;;;0.30;0.30;;;21.70;35.10;22.20;101297.00;;;;4971911;28;97952;-69
2023/06/03 08:49:59;;;;;;;4.55;0.45;;;21.90;35.10;22.50;101304.00;;;;4984896;28;94451;-69
2023/06/03 08:52:30;;;;;;;0.20;0.20;;;22.10;33.80;22.50;101294.00;;;;4981705;27;96292;-70
2023/06/03 08:55:00;;;;;;;0.30;0.30;;;22.30;32.80;22.50;101289.00;;;;4986372;28;94686;-67
2023/06/03 08:57:34;;;;;;;0.30;0.30;;;22.30;31.90;22.40;101291.00;;;;4986382;27;93026;-68
2023/06/03 09:00:01;;;;;;;2.63;0.57;;;22.20;32.20;22.40;101295.00;;;;4986117;27;92969;-68
2023/06/03 09:02:28;;;;;;;1.85;0.35;;;22.20;32.60;22.50;101303.00;;;;4989513;28;93107;-69
2023/06/03 09:04:55;;;;;;;2.30;0.40;;;22.30;32.10;22.50;101299.00;;;;4988373;28;122806;-69
2023/06/03 09:07:23;;;;;;;1.55;0.30;;;22.20;30.00;22.30;101299.00;;;;4983544;28;95961;-69
2023/06/03 09:09:58;;;;;;;1.20;0.22;;;22.10;29.50;22.20;101299.00;;;;4988102;28;92198;-69
2023/06/03 09:12:27;;;;;;;0.45;0.20;;;22.00;30.40;22.30;101292.00;;;;4985877;28;93943;-68
2023/06/03 09:14:54;;;;;;;0.10;0.00;;;22.00;31.70;22.40;101285.00;;;;4984144;28;94061;-67
2023/06/03 09:17:24;;;;;;;2.47;0.50;;;22.10;31.30;22.50;101296.00;;;;4985348;28;93470;-70
2023/06/03 09:19:50;;;;;;;0.10;0.10;;;22.20;31.50;22.50;101289.00;;;;4984748;28;93313;-69
2023/06/03 09:22:17;;;;;;;0.10;0.10;;;22.20;30.10;22.50;101286.00;;;;4986087;28;111854;-68
2023/06/03 09:24:43;;;;;;;0.35;0.35;;;22.20;30.90;22.50;101279.00;;;;4997806;27;105819;-68
2023/06/03 09:27:09;;;;;;;1.27;0.47;;;22.20;31.60;22.60;101286.00;;;;4985226;28;101098;-70
2023/06/03 09:29:34;;;;;;;0.40;0.40;;;22.30;31.50;22.70;101285.00;;;;4986359;27;93883;-69
2023/06/03 09:32:04;;;;;;;0.85;0.28;;;22.40;32.00;22.80;101276.00;;;;4984697;27;123541;-69
2023/06/03 09:34:31;;;;;;;0.20;0.20;;;22.40;30.90;22.80;101282.00;;;;5001524;27;115248;-69
2023/06/03 09:37:06;;;;;;;0.40;0.40;;;22.50;31.30;22.80;101291.00;;;;4998817;27;110787;-69
2023/06/03 09:39:37;;;;;;;1.45;0.30;;;22.50;32.00;22.80;101280.00;;;;4982650;28;101611;-70
2023/06/03 09:42:03;;;;;;;0.73;0.32;;;22.50;31.40;22.80;101294.00;;;;4973779;27;99030;-70
2023/06/03 09:44:49;;;;;;;0.40;0.40;;;22.50;31.30;22.90;101290.00;;;;4980506;27;118740;-69
2023/06/03 09:47:15;;;;;;;0.45;0.45;;;22.50;31.90;23.20;101296.00;;;;4980495;28;93121;-70
2023/06/03 09:50:04;;;;;;;0.82;0.25;;;22.70;31.40;23.40;101291.00;;;;4992769;28;92821;-70
2023/06/03 09:52:35;;;;;;;0.20;0.15;;;23.00;30.70;23.40;101290.00;;;;4988561;28;93216;-70
2023/06/03 09:55:09;;;;;;;0.13;0.13;;;23.00;30.70;23.60;101288.00;;;;4986967;28;93836;-69
2023/06/03 09:57:37;;;;;;;0.68;0.30;;;23.10;31.30;23.80;101284.00;;;;4940445;28;93259;-70
2023/06/03 10:00:11;;;;;;;0.30;0.25;;;23.40;30.20;23.70;101280.00;;;;4973821;28;109279;-70
2023/06/03 10:02:43;;;;;;;0.30;0.30;;;23.40;30.30;23.80;101273.00;;;;4966789;28;92980;-68
2023/06/03 10:05:30;;;;;;;0.63;0.20;;;23.40;30.80;24.10;101278.00;;;;4980639;28;93172;-70
2023/06/03 10:07:57;;;;;;;3.72;0.45;;;23.50;31.20;24.40;101278.00;;;;4970597;28;93924;-70
2023/06/03 10:10:23;;;;;;;0.65;0.38;;;23.80;30.90;24.50;101282.00;;;;4985974;27;99606;-71
2023/06/03 10:12:50;;;;;;;0.65;0.20;;;24.00;29.70;24.70;101277.00;;;;4983744;28;115572;-71
2023/06/03 10:15:38;;;;;;;1.17;0.40;;;24.10;30.80;24.80;101275.00;;;;4978257;28;98572;-71
2023/06/03 10:18:05;;;;;;;0.30;0.30;;;24.30;30.20;25.00;101273.00;;;;4983483;28;93019;-70
2023/06/03 10:20:39;;;;;;;1.33;0.20;;;24.40;30.00;25.00;101270.00;;;;4984207;28;92940;-71
2023/06/03 10:23:07;;;;;;;0.20;0.10;;;24.50;30.40;25.20;101273.00;;;;4984417;28;94089;-73
2023/06/03 10:25:42;;;;;;;0.45;0.20;;;24.70;30.00;25.40;101270.00;;;;4978135;27;93868;-70
2023/06/03 10:28:09;;;;;;;0.20;0.20;;;24.80;29.60;25.20;101267.00;;;;4983270;27;92868;-69
2023/06/03 10:30:35;;;;;;;1.17;0.65;;;24.70;29.40;25.20;101260.00;;;;4983364;27;92717;-71
2023/06/03 10:33:03;;;;;;;0.40;0.40;;;24.70;29.40;25.30;101273.00;;;;4976348;27;123973;-69
2023/06/03 10:35:32;;;;;;;0.63;0.57;;;24.70;29.60;25.40;101272.00;;;;4970528;28;96124;-70
2023/06/03 10:38:03;;;;;;;0.20;0.20;;;24.80;29.20;25.50;101270.00;;;;4986314;28;92712;-69
2023/06/03 10:40:30;;;;;;;0.22;0.22;;;24.90;29.30;25.60;101262.00;;;;4981754;28;93208;-70
2023/06/03 10:42:56;;;;;;;0.45;0.32;;;25.00;29.50;25.80;101267.00;;;;4982501;28;99731;-69
2023/06/03 10:45:24;;;;;;;0.22;0.20;;;25.20;29.60;26.00;101262.00;;;;4984148;28;93303;-69
2023/06/03 10:48:00;;;;;;;0.30;0.30;;;25.40;29.10;26.30;101268.00;;;;4968943;28;93216;-69
2023/06/03 10:51:29;;;;;;;1.60;0.55;;;25.60;29.20;26.70;101258.00;;;;4968187;27;92356;-70
2023/06/03 10:54:52;;;;;;;0.35;0.25;;;26.00;29.20;27.00;101259.00;;;;4971443;28;93312;-69
2023/06/03 10:57:25;;;;;;;3.10;0.43;;;26.30;29.10;27.20;101258.00;;;;4968671;28;94299;-69
2023/06/03 10:59:51;;;;;;;0.47;0.45;;;26.50;28.20;27.30;101253.00;;;;4982978;28;94094;-70